Time;durP1;ratioP1;P1;durP2;ratioP2;P2;SDS_P1;SDS_P2;PMS_P1;PMS_P2;Temp;Humidity;BMP_temperature;BMP_pressure;BME280_temperature;BME280_humidity;BME280_pressure;Samples;Min_cycle;Max_cycle;Signal;HPM_P1;HPM_P2
2023/07/15 00:01:25;;;;;;;0.28;0.28;;;22.30;99.90;;;;;;5023033;28;20329;-80
2023/07/15 00:03:52;;;;;;;0.10;0.10;;;22.20;99.90;;;;;;5039997;28;20025;-87
2023/07/15 00:06:18;;;;;;;0.03;0.03;;;22.40;99.90;;;;;;5041063;28;20629;-78
2023/07/15 00:08:45;;;;;;;0.52;0.52;;;22.20;99.90;;;;;;5043462;28;20029;-77
2023/07/15 00:11:39;;;;;;;3.13;1.65;;;22.50;99.90;;;;;;5045065;28;20033;-81
2023/07/15 00:14:21;;;;;;;1.00;0.90;;;22.60;99.90;;;;;;5044551;28;20028;-74
2023/07/15 00:16:49;;;;;;;0.30;0.30;;;22.80;99.90;;;;;;5043016;28;20040;-82
2023/07/15 00:19:18;;;;;;;0.10;0.10;;;22.60;99.90;;;;;;5042119;28;20037;-78
2023/07/15 00:21:45;;;;;;;0.63;0.63;;;22.90;99.90;;;;;;5041151;28;20529;-79
2023/07/15 00:24:11;;;;;;;0.43;0.43;;;22.90;99.90;;;;;;5038263;28;20730;-75
2023/07/15 00:26:37;;;;;;;0.10;0.10;;;23.00;99.90;;;;;;5040007;28;20060;-79
2023/07/15 00:29:04;;;;;;;0.10;0.10;;;23.00;99.90;;;;;;5040125;28;20304;-78
2023/07/15 00:31:32;;;;;;;0.80;0.80;;;23.10;99.90;;;;;;5040058;28;20028;-88
2023/07/15 00:33:58;;;;;;;0.20;0.20;;;23.00;99.90;;;;;;5039188;28;20033;-81
2023/07/15 00:36:26;;;;;;;0.47;0.47;;;23.00;99.90;;;;;;5039025;28;20029;-82
2023/07/15 00:38:53;;;;;;;0.08;0.05;;;22.70;99.90;;;;;;5040021;28;20130;-85
2023/07/15 00:41:32;;;;;;;0.17;0.17;;;23.70;99.90;;;;;;5039731;28;20033;-80
2023/07/15 00:43:58;;;;;;;0.75;0.75;;;22.40;99.90;;;;;;5039953;28;20225;-81
2023/07/15 00:46:33;;;;;;;0.30;0.30;;;22.40;99.90;;;;;;5039668;28;20029;-76
2023/07/15 00:49:16;;;;;;;0.88;0.88;;;22.20;99.90;;;;;;5043615;28;20368;-75
2023/07/15 00:51:48;;;;;;;0.73;0.73;;;22.40;99.90;;;;;;5044150;28;20047;-87
2023/07/15 00:54:14;;;;;;;0.10;0.10;;;22.20;99.90;;;;;;5044078;28;20302;-75
2023/07/15 00:56:43;;;;;;;0.35;0.35;;;22.30;99.90;;;;;;5042221;28;20128;-72
2023/07/15 00:59:10;;;;;;;0.10;0.10;;;22.70;99.90;;;;;;5042458;28;20238;-73
2023/07/15 01:01:36;;;;;;;0.35;0.35;;;23.00;99.90;;;;;;5043171;28;20577;-84
2023/07/15 01:04:02;;;;;;;0.10;0.10;;;23.00;99.90;;;;;;5043662;28;20049;-77
2023/07/15 01:06:28;;;;;;;0.10;0.10;;;23.10;99.90;;;;;;5040869;28;20285;-75
2023/07/15 01:08:54;;;;;;;0.35;0.30;;;23.10;99.90;;;;;;5039979;28;20255;-83
2023/07/15 01:11:20;;;;;;;0.63;0.63;;;23.20;99.90;;;;;;5039191;28;20067;-77
2023/07/15 01:13:47;;;;;;;1.10;1.05;;;23.10;99.90;;;;;;5037831;28;20049;-82
2023/07/15 01:16:13;;;;;;;0.10;0.10;;;23.20;99.90;;;;;;5039531;28;20029;-73
2023/07/15 01:18:38;;;;;;;0.10;0.10;;;23.10;99.90;;;;;;5040024;28;20355;-77
2023/07/15 01:21:05;;;;;;;1.50;1.40;;;22.90;99.90;;;;;;5039968;28;20542;-81
2023/07/15 01:23:31;;;;;;;0.35;0.35;;;22.90;99.90;;;;;;5040359;28;20063;-75
2023/07/15 01:25:57;;;;;;;1.83;1.67;;;22.70;99.90;;;;;;5039840;28;20024;-88
2023/07/15 01:28:23;;;;;;;0.65;0.63;;;22.50;99.90;;;;;;5039568;28;20025;-84
2023/07/15 01:30:50;;;;;;;0.20;0.20;;;22.20;99.90;;;;;;5039187;28;20029;-84
2023/07/15 01:33:16;;;;;;;0.10;0.10;;;22.20;99.90;;;;;;5039437;28;20104;-76
2023/07/15 01:35:49;;;;;;;0.25;0.25;;;22.20;99.90;;;;;;5038450;28;20099;-72
2023/07/15 01:38:15;;;;;;;0.17;0.17;;;21.90;99.90;;;;;;5039300;28;20107;-79
2023/07/15 01:40:42;;;;;;;0.13;0.13;;;21.60;99.90;;;;;;5038851;28;20033;-80
2023/07/15 01:43:09;;;;;;;0.10;0.10;;;21.70;99.90;;;;;;5039869;28;20037;-82
2023/07/15 01:45:36;;;;;;;0.52;0.45;;;21.60;99.90;;;;;;5039338;28;20241;-79
2023/07/15 01:48:01;;;;;;;0.10;0.10;;;21.60;99.90;;;;;;5039866;28;20364;-90
2023/07/15 01:50:27;;;;;;;0.35;0.35;;;21.80;99.90;;;;;;5039781;28;20546;-75
2023/07/15 01:52:53;;;;;;;0.10;0.10;;;21.50;99.90;;;;;;5040087;28;20503;-79
2023/07/15 01:55:19;;;;;;;0.17;0.17;;;21.80;99.90;;;;;;5038513;28;20027;-80
2023/07/15 01:57:45;;;;;;;0.20;0.20;;;21.60;99.90;;;;;;5039656;28;20130;-81
2023/07/15 02:00:16;;;;;;;0.68;0.68;;;21.20;99.90;;;;;;5039232;28;20040;-74
2023/07/15 02:02:42;;;;;;;0.43;0.43;;;21.50;99.90;;;;;;5039128;28;20033;-73
2023/07/15 02:05:09;;;;;;;1.40;1.20;;;;;;;;;;5037582;28;20021;-77
2023/07/15 02:07:35;;;;;;;0.22;0.22;;;21.60;99.90;;;;;;5038750;28;20025;-84
2023/07/15 02:10:01;;;;;;;0.10;0.10;;;21.20;99.90;;;;;;5038761;28;20036;-84
2023/07/15 02:12:27;;;;;;;0.10;0.10;;;21.10;99.90;;;;;;5040606;28;20404;-85
2023/07/15 02:14:54;;;;;;;0.47;0.47;;;21.50;99.90;;;;;;5039814;28;20036;-88
2023/07/15 02:17:22;;;;;;;0.10;0.10;;;21.50;99.90;;;;;;5044310;28;20025;-81
2023/07/15 02:19:49;;;;;;;0.10;0.10;;;21.70;99.90;;;;;;5040604;28;20021;-85
2023/07/15 02:22:15;;;;;;;0.38;0.38;;;21.70;99.90;;;;;;5043982;28;20503;-78
2023/07/15 02:24:40;;;;;;;0.17;0.17;;;21.80;99.90;;;;;;5041947;28;20032;-82
2023/07/15 02:27:06;;;;;;;1.02;1.00;;;21.50;99.90;;;;;;5045873;28;20186;-85
2023/07/15 02:29:32;;;;;;;0.82;0.82;;;21.50;99.90;;;;;;5047538;28;20017;-80
2023/07/15 02:31:58;;;;;;;0.35;0.35;;;21.50;99.90;;;;;;5052372;28;20014;-78
2023/07/15 02:34:23;;;;;;;0.10;0.10;;;21.30;99.90;;;;;;5041464;28;20095;-80
2023/07/15 02:36:49;;;;;;;0.05;0.05;;;21.60;99.90;;;;;;5037766;28;20516;-77
2023/07/15 02:39:16;;;;;;;0.10;0.10;;;21.70;99.90;;;;;;5039980;28;20029;-77
2023/07/15 02:41:44;;;;;;;0.30;0.30;;;19.40;99.90;;;;;;5038482;28;20039;-76
2023/07/15 02:44:10;;;;;;;3.10;2.15;;;22.10;99.90;;;;;;5037546;28;20019;-82
2023/07/15 02:46:36;;;;;;;0.15;0.15;;;;;;;;;;5038440;28;20738;-74
2023/07/15 02:49:02;;;;;;;0.10;0.10;;;22.00;99.90;;;;;;5038668;28;20294;-78
2023/07/15 02:51:31;;;;;;;0.20;0.20;;;22.10;99.90;;;;;;5037629;28;20232;-79
2023/07/15 02:54:01;;;;;;;0.22;0.22;;;22.30;99.90;;;;;;5039130;28;20029;-74
2023/07/15 02:56:27;;;;;;;0.10;0.10;;;22.40;99.90;;;;;;5039174;28;20028;-74
2023/07/15 02:58:56;;;;;;;0.10;0.10;;;;;;;;;;5041791;28;20247;-74
2023/07/15 03:01:22;;;;;;;0.20;0.20;;;22.40;99.90;;;;;;5042875;28;20047;-75
2023/07/15 03:03:48;;;;;;;0.77;0.77;;;22.30;99.90;;;;;;5042118;28;20421;-73
2023/07/15 03:06:14;;;;;;;0.43;0.43;;;;;;;;;;5039861;28;20357;-78
2023/07/15 03:08:40;;;;;;;0.10;0.10;;;22.70;99.90;;;;;;5041102;28;20017;-78
2023/07/15 03:11:07;;;;;;;1.15;1.10;;;23.80;99.90;;;;;;5040750;28;20036;-76
2023/07/15 03:13:33;;;;;;;0.10;0.10;;;22.50;99.90;;;;;;5040639;28;20087;-75
2023/07/15 03:15:59;;;;;;;0.35;0.35;;;22.60;99.90;;;;;;5039290;28;20495;-75
2023/07/15 03:18:28;;;;;;;0.30;0.30;;;22.70;99.90;;;;;;5040571;28;20419;-74
2023/07/15 03:20:56;;;;;;;0.17;0.17;;;22.60;99.90;;;;;;5040227;28;20029;-74
2023/07/15 03:23:22;;;;;;;0.10;0.10;;;22.60;99.90;;;;;;5039369;28;20313;-74
2023/07/15 03:25:48;;;;;;;0.25;0.25;;;22.50;99.90;;;;;;5040682;28;20016;-74
2023/07/15 03:28:13;;;;;;;0.55;0.55;;;22.40;99.90;;;;;;5040644;28;20048;-77
2023/07/15 03:30:39;;;;;;;0.45;0.45;;;22.70;99.90;;;;;;5040393;28;20045;-79
2023/07/15 03:33:05;;;;;;;0.30;0.30;;;22.90;99.90;;;;;;5040550;28;20056;-74
2023/07/15 03:35:31;;;;;;;0.17;0.17;;;25.00;99.90;;;;;;5040334;28;20113;-74
2023/07/15 03:37:57;;;;;;;0.22;0.22;;;22.50;99.90;;;;;;5040264;28;20319;-75
2023/07/15 03:40:23;;;;;;;2.03;1.48;;;22.90;99.90;;;;;;5038746;28;20076;-74
2023/07/15 03:42:49;;;;;;;0.10;0.10;;;22.90;99.90;;;;;;5040417;28;20069;-77
2023/07/15 03:45:17;;;;;;;0.43;0.43;;;22.90;99.90;;;;;;5040587;28;20679;-82
2023/07/15 03:47:43;;;;;;;0.15;0.15;;;22.70;99.90;;;;;;5040432;28;20031;-76
2023/07/15 03:50:09;;;;;;;0.10;0.10;;;22.80;99.90;;;;;;5040432;28;20097;-77
2023/07/15 03:52:35;;;;;;;0.93;0.93;;;22.80;99.90;;;;;;5040192;28;20056;-77
2023/07/15 03:55:03;;;;;;;1.55;1.10;;;22.70;99.90;;;;;;5040456;28;20025;-75
2023/07/15 03:57:29;;;;;;;0.70;0.70;;;22.90;99.90;;;;;;5041336;28;20103;-80
2023/07/15 03:59:54;;;;;;;1.50;1.40;;;22.90;99.90;;;;;;5041549;28;20017;-73
2023/07/15 04:02:21;;;;;;;0.80;0.80;;;23.00;99.90;;;;;;5042124;28;20297;-76
2023/07/15 04:04:46;;;;;;;0.10;0.10;;;23.30;99.90;;;;;;5041405;28;20023;-80
2023/07/15 04:07:12;;;;;;;0.65;0.65;;;23.10;99.90;;;;;;5040035;28;20408;-78
2023/07/15 04:09:38;;;;;;;0.10;0.10;;;23.10;99.90;;;;;;5040484;28;20396;-81
2023/07/15 04:12:06;;;;;;;0.10;0.10;;;23.10;99.90;;;;;;5040409;28;20359;-74
2023/07/15 04:14:32;;;;;;;0.10;0.10;;;23.10;99.90;;;;;;5039817;28;20716;-81
2023/07/15 04:16:58;;;;;;;0.17;0.17;;;22.90;99.90;;;;;;5039686;28;20045;-80
2023/07/15 04:19:23;;;;;;;0.10;0.10;;;23.00;99.90;;;;;;5039748;28;20104;-75
2023/07/15 04:21:49;;;;;;;0.85;0.85;;;22.80;99.90;;;;;;5039375;28;20031;-74
2023/07/15 04:24:15;;;;;;;1.60;1.50;;;22.90;99.90;;;;;;5037646;28;20033;-86
2023/07/15 04:26:41;;;;;;;0.73;0.73;;;22.90;99.90;;;;;;5039452;28;20021;-75
2023/07/15 04:29:07;;;;;;;1.30;1.30;;;23.00;99.90;;;;;;5040678;28;20021;-75
2023/07/15 04:31:33;;;;;;;0.45;0.45;;;23.10;99.90;;;;;;5039111;28;20017;-74
2023/07/15 04:33:59;;;;;;;0.38;0.38;;;23.10;99.90;;;;;;5039659;28;20116;-75
2023/07/15 04:36:25;;;;;;;0.10;0.10;;;23.20;99.90;;;;;;5040176;28;20489;-79
2023/07/15 04:38:51;;;;;;;0.20;0.20;;;;;;;;;;5040413;28;20056;-75
2023/07/15 04:41:16;;;;;;;0.10;0.10;;;23.10;99.90;;;;;;5039670;28;20021;-75
2023/07/15 04:43:42;;;;;;;0.30;0.30;;;23.10;99.90;;;;;;5039401;28;20380;-81
2023/07/15 04:46:09;;;;;;;0.22;0.22;;;26.40;99.90;;;;;;5040248;28;20029;-80
2023/07/15 04:48:35;;;;;;;1.88;0.55;;;23.20;99.90;;;;;;5038843;28;20595;-81
2023/07/15 04:51:01;;;;;;;1.55;1.08;;;23.30;99.90;;;;;;5039594;28;20104;-76
2023/07/15 04:53:26;;;;;;;1.00;1.00;;;23.40;99.90;;;;;;5038957;28;20021;-79
2023/07/15 04:55:53;;;;;;;0.63;0.63;;;23.40;99.90;;;;;;5039304;28;20467;-87
2023/07/15 04:58:19;;;;;;;0.20;0.20;;;23.50;99.90;;;;;;5038579;28;20388;-74
2023/07/15 05:00:46;;;;;;;1.98;1.88;;;23.50;99.90;;;;;;5039793;28;20021;-79
2023/07/15 05:03:12;;;;;;;0.20;0.20;;;23.50;99.90;;;;;;5039069;28;20112;-80
2023/07/15 05:05:44;;;;;;;0.45;0.45;;;23.70;99.90;;;;;;5038982;28;20021;-81
2023/07/15 05:08:18;;;;;;;2.50;1.10;;;23.50;99.90;;;;;;5038964;28;20518;-75
2023/07/15 05:10:46;;;;;;;0.20;0.20;;;23.50;99.90;;;;;;5040439;28;20190;-80
2023/07/15 05:13:12;;;;;;;2.47;2.35;;;23.50;99.90;;;;;;5040089;28;20024;-77
2023/07/15 05:15:39;;;;;;;4.75;1.75;;;23.60;99.90;;;;;;5037722;28;20086;-80
2023/07/15 05:18:06;;;;;;;0.47;0.47;;;23.70;99.90;;;;;;5040185;28;20753;-74
2023/07/15 05:20:37;;;;;;;1.58;0.65;;;23.70;99.90;;;;;;5040464;28;20311;-74
2023/07/15 05:23:04;;;;;;;1.10;0.98;;;23.70;99.90;;;;;;5038749;28;20033;-74
2023/07/15 05:25:31;;;;;;;0.55;0.55;;;23.80;99.90;;;;;;5038654;28;20025;-75
2023/07/15 05:27:57;;;;;;;0.45;0.45;;;23.80;99.90;;;;;;5038936;28;20396;-84
2023/07/15 05:30:23;;;;;;;0.75;0.75;;;23.90;99.90;;;;;;5041400;28;20025;-80
2023/07/15 05:32:49;;;;;;;2.38;1.63;;;24.00;99.90;;;;;;5040072;28;20139;-75
2023/07/15 05:35:15;;;;;;;0.20;0.20;;;23.90;99.90;;;;;;5038726;28;20103;-74
2023/07/15 05:37:41;;;;;;;2.10;1.95;;;24.00;99.90;;;;;;5038539;28;20025;-80
2023/07/15 05:40:10;;;;;;;0.22;0.22;;;26.00;99.90;;;;;;5038534;28;20025;-81
2023/07/15 05:42:41;;;;;;;1.65;1.40;;;24.10;99.90;;;;;;5038625;28;20519;-79
2023/07/15 05:45:08;;;;;;;0.15;0.15;;;23.90;99.90;;;;;;5038557;28;20256;-83
2023/07/15 05:47:34;;;;;;;0.10;0.10;;;24.00;99.90;;;;;;5036672;28;20419;-83
2023/07/15 05:50:00;;;;;;;0.10;0.10;;;24.00;99.90;;;;;;5038384;28;20655;-86
2023/07/15 05:52:26;;;;;;;0.98;0.93;;;24.00;99.90;;;;;;5036997;28;20032;-79
2023/07/15 05:54:52;;;;;;;0.40;0.40;;;24.10;99.90;;;;;;5036648;28;20511;-75
2023/07/15 05:57:18;;;;;;;0.45;0.45;;;24.10;99.90;;;;;;5038347;28;20105;-75
2023/07/15 05:59:45;;;;;;;0.30;0.30;;;24.20;99.90;;;;;;5038372;28;20250;-74
2023/07/15 06:02:11;;;;;;;0.10;0.10;;;24.20;99.90;;;;;;5038719;28;20210;-80
2023/07/15 06:04:37;;;;;;;0.88;0.63;;;24.30;99.90;;;;;;5038421;28;20217;-79
2023/07/15 06:07:03;;;;;;;0.10;0.10;;;24.40;99.90;;;;;;5040801;28;20070;-85
2023/07/15 06:09:28;;;;;;;0.10;0.10;;;24.50;99.90;;;;;;5038037;28;20033;-84
2023/07/15 06:11:54;;;;;;;0.90;0.65;;;24.50;99.90;;;;;;5041842;28;20032;-82
2023/07/15 06:14:20;;;;;;;4.22;0.75;;;24.50;99.90;;;;;;5042918;28;20180;-78
2023/07/15 06:16:45;;;;;;;0.65;0.65;;;24.70;99.90;;;;;;5043649;28;20021;-77
2023/07/15 06:19:11;;;;;;;0.10;0.10;;;24.70;99.90;;;;;;5042598;28;20052;-80
2023/07/15 06:21:37;;;;;;;1.25;1.15;;;24.80;99.90;;;;;;5038219;28;20039;-77
2023/07/15 06:24:03;;;;;;;0.50;0.50;;;24.60;99.90;;;;;;5039601;28;20021;-77
2023/07/15 06:26:29;;;;;;;1.13;1.13;;;24.70;99.90;;;;;;5038593;28;20044;-77
2023/07/15 06:28:55;;;;;;;0.10;0.10;;;;;;;;;;5038201;28;20048;-75
2023/07/15 06:31:21;;;;;;;1.58;0.65;;;24.80;99.90;;;;;;5039381;28;20044;-80
2023/07/15 06:33:48;;;;;;;0.38;0.38;;;24.90;99.90;;;;;;5037830;28;20033;-79
2023/07/15 06:36:14;;;;;;;0.32;0.32;;;24.70;99.90;;;;;;5037730;28;20025;-81
2023/07/15 06:38:40;;;;;;;0.10;0.10;;;24.60;99.90;;;;;;5037501;28;20029;-81
2023/07/15 06:41:06;;;;;;;0.52;0.52;;;24.80;99.90;;;;;;5037413;28;20029;-79
2023/07/15 06:43:31;;;;;;;0.22;0.22;;;25.00;99.90;;;;;;5038333;28;20028;-83
2023/07/15 06:45:57;;;;;;;0.52;0.52;;;25.20;99.90;;;;;;5037586;28;20025;-77
2023/07/15 06:48:23;;;;;;;0.88;0.88;;;25.30;99.90;;;;;;5036096;28;20053;-78
2023/07/15 06:50:49;;;;;;;1.10;0.70;;;25.40;99.90;;;;;;5037475;28;20767;-80
2023/07/15 06:53:15;;;;;;;0.10;0.10;;;25.50;99.90;;;;;;5037429;28;20017;-80
2023/07/15 06:55:41;;;;;;;5.38;2.70;;;25.50;99.90;;;;;;5037823;28;20028;-75
2023/07/15 06:58:06;;;;;;;3.03;0.43;;;25.50;99.90;;;;;;5038128;28;20602;-77
2023/07/15 07:00:33;;;;;;;0.52;0.52;;;25.50;99.90;;;;;;5038059;28;20065;-75
2023/07/15 07:02:59;;;;;;;5.13;4.68;;;25.60;99.90;;;;;;5038654;28;20029;-81
2023/07/15 07:05:26;;;;;;;1.20;1.20;;;25.50;99.90;;;;;;5038928;28;20100;-75
2023/07/15 07:07:52;;;;;;;0.10;0.10;;;25.50;99.90;;;;;;5038374;28;20013;-75
2023/07/15 07:10:18;;;;;;;0.65;0.65;;;25.60;99.90;;;;;;5039006;28;20031;-74
2023/07/15 07:12:44;;;;;;;2.08;1.98;;;25.50;99.90;;;;;;5037108;28;20013;-74
2023/07/15 07:15:10;;;;;;;0.38;0.35;;;25.40;99.90;;;;;;5037200;28;20532;-75
2023/07/15 07:17:36;;;;;;;0.10;0.10;;;25.50;99.90;;;;;;5037253;28;20532;-79
2023/07/15 07:20:03;;;;;;;0.75;0.38;;;25.60;99.90;;;;;;5036801;28;20064;-78
2023/07/15 07:22:29;;;;;;;0.65;0.65;;;25.60;99.90;;;;;;5036801;28;20089;-78
2023/07/15 07:24:55;;;;;;;1.75;1.05;;;25.60;99.90;;;;;;5037998;28;20100;-73
2023/07/15 07:27:21;;;;;;;0.20;0.20;;;25.70;99.90;;;;;;5037628;28;20013;-77
2023/07/15 07:29:52;;;;;;;0.85;0.85;;;25.80;99.90;;;;;;5037585;28;20732;-74
2023/07/15 07:32:18;;;;;;;0.50;0.50;;;25.90;99.90;;;;;;5036284;28;20021;-74
2023/07/15 07:34:44;;;;;;;0.10;0.10;;;26.00;99.90;;;;;;5036898;28;20685;-75
2023/07/15 07:37:09;;;;;;;0.73;0.73;;;26.20;99.90;;;;;;5036924;28;20574;-75
2023/07/15 07:39:35;;;;;;;1.10;1.00;;;26.40;99.90;;;;;;5037407;28;20017;-78
2023/07/15 07:42:01;;;;;;;0.40;0.40;;;26.10;99.90;;;;;;5037292;28;20040;-80
2023/07/15 07:44:27;;;;;;;0.57;0.43;;;26.30;99.90;;;;;;5039499;28;20198;-76
2023/07/15 07:46:53;;;;;;;0.10;0.10;;;26.40;99.90;;;;;;5041061;28;20567;-74
2023/07/15 07:49:18;;;;;;;0.03;0.03;;;26.80;99.90;;;;;;5040329;28;20051;-74
2023/07/15 07:51:44;;;;;;;0.93;0.68;;;24.30;99.90;;;;;;5040418;28;20040;-79
2023/07/15 07:54:10;;;;;;;2.90;2.75;;;26.60;99.90;;;;;;5040869;28;20028;-81
2023/07/15 07:56:36;;;;;;;0.57;0.57;;;26.50;99.90;;;;;;5040818;28;20029;-74
2023/07/15 07:59:02;;;;;;;0.47;0.47;;;26.80;99.90;;;;;;5040799;28;20432;-75
2023/07/15 08:01:30;;;;;;;0.65;0.45;;;26.80;99.90;;;;;;5040333;28;20048;-74
2023/07/15 08:03:56;;;;;;;0.75;0.65;;;27.80;99.90;;;;;;5040533;28;20515;-85
2023/07/15 08:06:23;;;;;;;2.97;1.17;;;26.80;99.90;;;;;;5042295;28;20035;-78
2023/07/15 08:08:49;;;;;;;1.75;0.75;;;26.80;99.90;;;;;;5045695;28;20029;-85
2023/07/15 08:11:15;;;;;;;0.38;0.35;;;27.40;99.90;;;;;;5048359;28;20075;-76
2023/07/15 08:13:41;;;;;;;0.47;0.47;;;28.00;99.90;;;;;;5048551;28;20096;-74
2023/07/15 08:16:30;;;;;;;0.40;0.40;;;27.00;99.90;;;;;;5049529;28;20283;-79
2023/07/15 08:18:57;;;;;;;0.93;0.85;;;27.00;99.90;;;;;;5044339;28;20427;-84
2023/07/15 08:21:23;;;;;;;0.80;0.63;;;27.40;99.90;;;;;;5044767;28;20101;-78
2023/07/15 08:23:49;;;;;;;0.85;0.73;;;27.40;99.90;;;;;;5046045;28;20518;-83
2023/07/15 08:26:14;;;;;;;0.20;0.20;;;27.50;99.90;;;;;;5047264;28;20108;-79
2023/07/15 08:28:40;;;;;;;1.48;1.25;;;27.60;99.90;;;;;;5049537;28;20021;-79
2023/07/15 08:31:06;;;;;;;2.00;1.90;;;27.90;99.90;;;;;;5050285;28;20025;-76
2023/07/15 08:33:32;;;;;;;3.40;3.10;;;27.70;99.90;;;;;;5040601;28;20021;-83
2023/07/15 08:35:57;;;;;;;0.30;0.30;;;27.90;99.90;;;;;;5041834;28;20037;-81
2023/07/15 08:38:23;;;;;;;6.07;1.00;;;28.00;99.90;;;;;;5040544;28;20675;-76
2023/07/15 08:40:56;;;;;;;0.98;0.73;;;28.20;99.90;;;;;;5038997;28;20102;-83
2023/07/15 08:43:22;;;;;;;;;;;28.10;99.90;;;;;;5041261;28;20670;-87
2023/07/15 08:45:49;;;;;;;0.68;0.68;;;28.40;99.90;;;;;;5040850;28;19909;-78
2023/07/15 08:48:15;;;;;;;2.33;1.10;;;28.60;99.90;;;;;;5041406;28;20028;-82
2023/07/15 08:50:42;;;;;;;2.92;1.73;;;28.70;99.90;;;;;;5042547;28;20013;-77
2023/07/15 08:53:08;;;;;;;1.10;1.02;;;28.60;99.90;;;;;;5040943;28;20120;-74
2023/07/15 08:55:34;;;;;;;1.13;1.02;;;28.80;99.90;;;;;;5039295;28;20104;-76
2023/07/15 08:58:00;;;;;;;1.23;0.82;;;29.00;99.90;;;;;;5040130;28;20048;-82
2023/07/15 09:00:27;;;;;;;1.30;1.23;;;29.10;99.90;;;;;;5041167;28;20027;-78
2023/07/15 09:02:53;;;;;;;0.30;0.30;;;29.10;99.90;;;;;;5041733;28;20029;-78
2023/07/15 09:05:20;;;;;;;1.30;1.10;;;;;;;;;;5038217;28;20621;-74
2023/07/15 09:07:57;;;;;;;0.25;0.20;;;29.50;99.90;;;;;;5039835;28;20094;-88
2023/07/15 09:10:24;;;;;;;2.65;1.23;;;29.50;99.90;;;;;;5039692;28;20021;-77
2023/07/15 09:12:54;;;;;;;2.72;2.53;;;29.50;99.90;;;;;;5039611;28;20017;-78
2023/07/15 09:15:21;;;;;;;0.68;0.40;;;29.50;99.90;;;;;;5039028;28;20027;-80
2023/07/15 09:17:56;;;;;;;1.17;0.85;;;29.70;99.90;;;;;;5038983;28;20025;-74
2023/07/15 09:20:24;;;;;;;1.88;1.33;;;29.60;99.90;;;;;;5039673;28;20056;-78
2023/07/15 09:22:58;;;;;;;1.52;1.42;;;29.50;99.90;;;;;;5039627;28;20032;-78
2023/07/15 09:25:25;;;;;;;0.30;0.30;;;29.70;99.90;;;;;;5040003;28;20017;-76
2023/07/15 09:27:53;;;;;;;2.33;1.90;;;29.90;99.90;;;;;;5040097;28;20048;-80
2023/07/15 09:30:19;;;;;;;0.57;0.57;;;29.90;99.90;;;;;;5040065;28;20093;-87
2023/07/15 09:32:46;;;;;;;0.13;0.13;;;29.80;99.90;;;;;;5039293;28;20100;-83
2023/07/15 09:35:13;;;;;;;1.48;1.17;;;30.00;99.90;;;;;;5039509;28;20017;-79
2023/07/15 09:37:39;;;;;;;1.33;1.15;;;30.10;99.90;;;;;;5039922;28;20609;-74
2023/07/15 09:40:08;;;;;;;2.40;1.75;;;30.10;99.90;;;;;;5038452;28;20028;-75
2023/07/15 09:42:54;;;;;;;1.00;0.73;;;30.10;99.90;;;;;;5039586;28;20025;-80
2023/07/15 09:45:37;;;;;;;0.25;0.25;;;30.30;99.90;;;;;;5040151;28;20090;-77
2023/07/15 09:48:07;;;;;;;0.57;0.57;;;30.20;99.90;;;;;;5039080;28;20013;-81
2023/07/15 09:50:35;;;;;;;5.15;1.25;;;30.60;99.90;;;;;;5039509;28;20029;-75
2023/07/15 09:53:02;;;;;;;0.35;0.25;;;30.70;99.90;;;;;;5040875;28;20394;-82
2023/07/15 09:55:29;;;;;;;1.02;0.95;;;30.90;99.90;;;;;;5038846;28;20021;-80
2023/07/15 09:58:23;;;;;;;0.63;0.63;;;31.10;99.90;;;;;;5041988;28;20049;-74
2023/07/15 10:01:13;;;;;;;4.30;1.35;;;31.30;99.90;;;;;;5041330;28;20025;-81
2023/07/15 10:03:48;;;;;;;1.83;1.33;;;31.70;99.90;;;;;;5038949;28;20043;-80
2023/07/15 10:06:15;;;;;;;2.70;1.25;;;31.40;99.90;;;;;;5039138;28;20049;-73
2023/07/15 10:08:41;;;;;;;1.25;1.13;;;31.30;99.90;;;;;;5036947;28;20651;-83
2023/07/15 10:11:08;;;;;;;0.65;0.65;;;31.40;99.90;;;;;;5037693;28;20064;-74
2023/07/15 10:13:35;;;;;;;1.98;1.35;;;33.90;99.90;;;;;;5039240;28;20137;-87
2023/07/15 10:16:02;;;;;;;0.75;0.75;;;31.40;99.90;;;;;;5037873;28;20082;-75
2023/07/15 10:18:33;;;;;;;0.28;0.28;;;31.30;98.80;;;;;;5039027;28;20017;-76
2023/07/15 10:21:04;;;;;;;0.80;0.80;;;31.40;98.70;;;;;;5038854;28;20024;-79
2023/07/15 10:23:32;;;;;;;0.68;0.68;;;31.70;98.40;;;;;;5038067;28;20087;-81
2023/07/15 10:26:04;;;;;;;3.55;1.88;;;32.30;97.50;;;;;;5038947;28;20024;-79
2023/07/15 10:28:40;;;;;;;0.32;0.32;;;32.10;97.40;;;;;;5036560;28;20025;-76
2023/07/15 10:31:14;;;;;;;0.45;0.45;;;32.20;97.10;;;;;;5038209;28;20079;-76
2023/07/15 10:34:04;;;;;;;0.32;0.32;;;32.20;96.20;;;;;;5038914;28;20578;-77
2023/07/15 10:36:40;;;;;;;0.88;0.45;;;32.40;96.70;;;;;;5037909;28;20009;-76
2023/07/15 10:39:34;;;;;;;1.20;0.98;;;32.80;95.70;;;;;;5038541;28;20116;-87
2023/07/15 10:42:08;;;;;;;0.25;0.25;;;33.00;94.90;;;;;;5023927;28;20079;-77
2023/07/15 10:44:45;;;;;;;0.85;0.77;;;33.10;94.10;;;;;;5039525;28;20186;-77
2023/07/15 10:47:15;;;;;;;0.98;0.55;;;33.20;93.30;;;;;;5038030;28;20126;-77
2023/07/15 10:49:44;;;;;;;1.85;0.93;;;33.20;93.10;;;;;;5039142;28;20021;-75
2023/07/15 10:52:10;;;;;;;1.15;1.10;;;33.20;91.80;;;;;;5039169;28;20088;-75
2023/07/15 10:54:40;;;;;;;2.70;1.73;;;33.00;91.80;;;;;;5039386;28;20055;-84
2023/07/15 10:57:11;;;;;;;1.17;0.95;;;33.00;91.50;;;;;;5039301;28;20744;-77
2023/07/15 10:59:39;;;;;;;0.60;0.60;;;33.30;92.10;;;;;;5038490;28;20029;-83
2023/07/15 11:02:05;;;;;;;1.90;1.80;;;33.60;92.10;;;;;;5038116;28;20116;-77
2023/07/15 11:04:32;;;;;;;2.88;1.35;;;34.40;90.40;;;;;;5038210;28;20009;-83
2023/07/15 11:07:03;;;;;;;0.15;0.15;;;34.30;89.20;;;;;;5036792;28;20033;-78
2023/07/15 11:09:29;;;;;;;1.35;0.82;;;34.40;85.80;;;;;;5038322;28;20048;-76
2023/07/15 11:11:56;;;;;;;2.13;1.27;;;31.60;81.90;;;;;;5038415;28;20277;-85
2023/07/15 11:14:27;;;;;;;0.63;0.52;;;34.60;83.30;;;;;;5036489;28;20091;-76
2023/07/15 11:16:58;;;;;;;0.63;0.50;;;34.50;84.40;;;;;;5036301;28;20115;-77
2023/07/15 11:19:28;;;;;;;0.30;0.30;;;34.70;83.90;;;;;;5041369;28;20268;-80
2023/07/15 11:21:58;;;;;;;0.40;0.40;;;34.80;81.70;;;;;;5041833;28;20021;-81
2023/07/15 11:24:27;;;;;;;0.45;0.45;;;35.10;79.50;;;;;;5041776;28;20116;-83
2023/07/15 11:26:54;;;;;;;2.50;2.08;;;35.30;78.30;;;;;;5040798;28;20570;-76
2023/07/15 11:29:26;;;;;;;1.17;0.50;;;35.30;76.90;;;;;;5042755;28;20104;-78
2023/07/15 11:31:54;;;;;;;;;;;35.80;78.20;;;;;;5041746;28;20048;-85
2023/07/15 11:34:23;;;;;;;0.20;0.20;;;35.60;77.00;;;;;;5042266;28;20031;-86
2023/07/15 11:36:50;;;;;;;0.70;0.52;;;35.60;75.60;;;;;;5041798;28;20024;-80
2023/07/15 11:39:16;;;;;;;0.22;0.22;;;36.00;75.50;;;;;;5042277;28;20044;-77
2023/07/15 11:41:43;;;;;;;1.08;0.98;;;36.20;73.60;;;;;;5042367;28;20025;-77
2023/07/15 11:44:11;;;;;;;3.20;1.55;;;36.30;73.10;;;;;;5041207;28;20123;-81
2023/07/15 11:46:41;;;;;;;0.55;0.45;;;35.00;70.90;;;;;;5041926;28;20017;-79
2023/07/15 11:49:07;;;;;;;0.52;0.50;;;36.20;71.00;;;;;;5041689;28;20017;-86
2023/07/15 11:51:35;;;;;;;0.65;0.60;;;37.10;69.30;;;;;;5042283;28;20023;-81
2023/07/15 11:54:07;;;;;;;0.20;0.20;;;37.10;68.80;;;;;;5041706;28;20108;-83
2023/07/15 11:56:38;;;;;;;0.60;0.60;;;37.40;67.30;;;;;;5042482;28;20044;-76
2023/07/15 11:59:08;;;;;;;1.65;0.85;;;37.60;65.40;;;;;;5040489;28;20118;-78
2023/07/15 12:01:39;;;;;;;0.40;0.40;;;37.80;64.10;;;;;;5040604;28;20020;-77
2023/07/15 12:04:15;;;;;;;0.20;0.20;;;38.30;64.30;;;;;;5039811;28;20033;-85
2023/07/15 12:06:55;;;;;;;0.52;0.50;;;38.50;65.20;;;;;;5041963;28;20021;-75
2023/07/15 12:09:22;;;;;;;6.32;1.10;;;38.50;62.90;;;;;;5042136;28;20220;-79
2023/07/15 12:11:49;;;;;;;0.30;0.30;;;38.40;62.20;;;;;;5042429;28;20100;-77
2023/07/15 12:14:15;;;;;;;0.93;0.73;;;38.60;62.60;;;;;;5040307;28;20025;-76
2023/07/15 12:16:42;;;;;;;0.52;0.45;;;38.90;60.70;;;;;;5040981;28;20186;-81
2023/07/15 12:19:13;;;;;;;2.10;0.77;;;39.60;60.10;;;;;;5040805;28;20112;-76
2023/07/15 12:21:39;;;;;;;1.58;0.47;;;39.80;60.10;;;;;;5040064;28;20036;-82
2023/07/15 12:24:05;;;;;;;0.40;0.40;;;40.00;59.20;;;;;;5039969;28;20083;-82
2023/07/15 12:26:31;;;;;;;4.32;1.02;;;40.50;57.90;;;;;;5040059;28;20100;-80
2023/07/15 12:28:57;;;;;;;1.13;1.05;;;40.30;58.20;;;;;;5039774;28;20148;-76
2023/07/15 12:31:24;;;;;;;0.43;0.20;;;40.20;58.30;;;;;;5039795;28;20017;-81
2023/07/15 12:33:50;;;;;;;0.50;0.47;;;40.10;58.60;;;;;;5038301;28;20028;-82
2023/07/15 12:36:17;;;;;;;0.45;0.30;;;40.50;57.20;;;;;;5041148;28;20742;-79
2023/07/15 12:38:44;;;;;;;2.80;1.35;;;41.10;56.40;;;;;;5041097;28;20078;-81
2023/07/15 12:41:11;;;;;;;0.30;0.30;;;41.20;55.30;;;;;;5040300;28;20024;-84
2023/07/15 12:43:38;;;;;;;3.38;2.30;;;41.50;56.20;;;;;;5040651;28;20537;-82
2023/07/15 12:46:04;;;;;;;0.75;0.75;;;41.80;53.20;;;;;;5040958;28;20016;-75
2023/07/15 12:48:33;;;;;;;0.17;0.17;;;42.00;52.00;;;;;;5041052;28;20049;-77
2023/07/15 12:50:59;;;;;;;0.13;0.13;;;41.70;51.80;;;;;;5042157;28;20271;-79
2023/07/15 12:53:25;;;;;;;15.35;1.70;;;42.30;51.80;;;;;;5039426;28;20650;-76